Airfield :







YOU CAN JOIN US ON...

 
LOGIN :

Register | Disclaimer

   EN    FR    IT 

 









Legend :    VFR   Marginal VFR   IFR   Intensive IFR   Very Intensive IFR
Visi :
Ceiling :
>= 8 km
>= 3000ft
5 to 8 km
1000 to 3000 ft
1500m to 5 km
500 to 1000 ft
800 to 1500m
200 to 500 ft
< 800m
< 200 ft
Symbols :   Thunderstorms  Fog  Heavy snow  Heavy precipitations  Wind > 20 kt






- Airport Elevation : 534 ft
- IATA code : PQI


KPQI - Northern Maine Regional Arpt At Presque Isle

CURRENT METAR :
  • 242356Z AUTO 18005KT 10SM CLR 21/16 A3017 RMK AO2 SLP240 T02060156 10250 20206 56003

EXPIRED METARs :
  • 242256Z AUTO 17009KT 10SM CLR 22/16 A3017 RMK AO2 SLP242 T02220161
  • 242156Z AUTO 18008KT 10SM CLR 23/15 A3017 RMK AO2 SLP238 T02330150
  • 242056Z AUTO 15009KT 10SM CLR 24/15 A3018 RMK AO2 SLP243 T02440150 58011
  • 241956Z AUTO 16009KT 10SM CLR 24/14 A3020 RMK AO2 SLP249 T02440144
  • 241856Z AUTO 18008KT 10SM CLR 24/14 A3020 RMK AO2 SLP252 T02440139

TAF KPQI
Valid from the 25 at 00:00 until the 26 at 00:00 UTC


242320Z 2500/2524 16004KT P6SM FEW090
FM250500 16004KT P6SM BKN019
FM250800 16007KT 1SM BR BCFG BKN008
FM251200 17008KT P6SM VCSH OVC007
FM251900 19010G18KT P6SM VCSH BKN011
FM252300 23006KT P6SM VCSH BKN045
KZBW FIR / North America



MET'MAP, your aeronautical weather chart ! - Copyright ORBIFLY December 2007 - Disclaimer

ORBIFLY MET'MAP TEAM :

Programming & Development : Alexandra Zaïnal
Original concept : Baudouin d'Aumeries
Technical & hardware support : Manuel Goepfert
Assistance : Marc-Olivier Méhu




SOURCES & CREDITS :

   NOAA